sensor_id;sensor_type;location;lat;lon;timestamp;P1;durP1;ratioP1;P2;durP2;ratioP2
42670;SDS011;28283;55.426;37.756;2023-05-20T00:01:14;6.07;;;1.10;;
42670;SDS011;28283;55.426;37.756;2023-05-20T00:06:15;4.35;;;1.05;;
42670;SDS011;28283;55.426;37.756;2023-05-20T00:11:15;3.60;;;1.38;;
42670;SDS011;28283;55.426;37.756;2023-05-20T00:16:16;6.60;;;1.43;;
42670;SDS011;28283;55.426;37.756;2023-05-20T00:21:16;8.13;;;2.23;;
42670;SDS011;28283;55.426;37.756;2023-05-20T00:26:17;8.15;;;1.67;;
42670;SDS011;28283;55.426;37.756;2023-05-20T00:31:18;9.90;;;1.42;;
42670;SDS011;28283;55.426;37.756;2023-05-20T00:36:19;6.68;;;1.25;;
42670;SDS011;28283;55.426;37.756;2023-05-20T00:41:19;5.87;;;1.17;;
42670;SDS011;28283;55.426;37.756;2023-05-20T00:46:23;4.97;;;1.00;;
42670;SDS011;28283;55.426;37.756;2023-05-20T00:51:26;9.40;;;1.05;;
42670;SDS011;28283;55.426;37.756;2023-05-20T00:56:27;7.10;;;1.52;;
42670;SDS011;28283;55.426;37.756;2023-05-20T01:01:28;5.45;;;1.23;;
42670;SDS011;28283;55.426;37.756;2023-05-20T01:06:29;3.65;;;1.50;;
42670;SDS011;28283;55.426;37.756;2023-05-20T01:11:33;5.73;;;1.40;;
42670;SDS011;28283;55.426;37.756;2023-05-20T01:16:44;1.80;;;0.60;;
42670;SDS011;28283;55.426;37.756;2023-05-20T01:21:47;3.50;;;0.75;;
42670;SDS011;28283;55.426;37.756;2023-05-20T01:26:50;2.63;;;0.70;;
42670;SDS011;28283;55.426;37.756;2023-05-20T01:31:51;3.75;;;2.10;;
42670;SDS011;28283;55.426;37.756;2023-05-20T01:36:54;6.00;;;1.30;;
42670;SDS011;28283;55.426;37.756;2023-05-20T01:41:55;6.93;;;1.00;;
42670;SDS011;28283;55.426;37.756;2023-05-20T01:46:56;5.20;;;2.42;;
42670;SDS011;28283;55.426;37.756;2023-05-20T01:51:58;3.90;;;1.98;;
42670;SDS011;28283;55.426;37.756;2023-05-20T01:56:59;5.60;;;1.95;;
42670;SDS011;28283;55.426;37.756;2023-05-20T02:02:00;7.25;;;2.17;;
42670;SDS011;28283;55.426;37.756;2023-05-20T02:07:01;3.05;;;1.30;;
42670;SDS011;28283;55.426;37.756;2023-05-20T02:12:02;4.28;;;1.40;;
42670;SDS011;28283;55.426;37.756;2023-05-20T02:17:03;4.78;;;1.67;;
42670;SDS011;28283;55.426;37.756;2023-05-20T02:22:03;4.85;;;1.20;;
42670;SDS011;28283;55.426;37.756;2023-05-20T02:27:05;6.43;;;1.63;;
42670;SDS011;28283;55.426;37.756;2023-05-20T02:32:06;4.32;;;1.25;;
42670;SDS011;28283;55.426;37.756;2023-05-20T02:37:07;5.93;;;1.88;;
42670;SDS011;28283;55.426;37.756;2023-05-20T02:42:08;6.55;;;1.85;;
42670;SDS011;28283;55.426;37.756;2023-05-20T02:47:09;6.72;;;2.13;;
42670;SDS011;28283;55.426;37.756;2023-05-20T02:52:10;7.72;;;1.63;;
42670;SDS011;28283;55.426;37.756;2023-05-20T02:57:10;10.27;;;2.03;;
42670;SDS011;28283;55.426;37.756;2023-05-20T03:02:11;7.57;;;1.75;;
42670;SDS011;28283;55.426;37.756;2023-05-20T03:07:12;7.05;;;1.88;;
42670;SDS011;28283;55.426;37.756;2023-05-20T03:17:14;6.68;;;2.13;;
42670;SDS011;28283;55.426;37.756;2023-05-20T03:22:15;7.43;;;2.28;;
42670;SDS011;28283;55.426;37.756;2023-05-20T03:27:16;5.00;;;1.90;;
42670;SDS011;28283;55.426;37.756;2023-05-20T03:32:16;4.22;;;1.60;;
42670;SDS011;28283;55.426;37.756;2023-05-20T03:37:17;4.13;;;1.85;;
42670;SDS011;28283;55.426;37.756;2023-05-20T03:42:18;5.72;;;1.55;;
42670;SDS011;28283;55.426;37.756;2023-05-20T03:47:19;1.97;;;0.60;;
42670;SDS011;28283;55.426;37.756;2023-05-20T03:52:20;2.27;;;1.13;;
42670;SDS011;28283;55.426;37.756;2023-05-20T03:57:20;2.80;;;1.02;;
42670;SDS011;28283;55.426;37.756;2023-05-20T04:02:21;4.00;;;1.05;;
42670;SDS011;28283;55.426;37.756;2023-05-20T04:07:22;0.93;;;0.50;;
42670;SDS011;28283;55.426;37.756;2023-05-20T04:12:23;0.50;;;0.43;;
42670;SDS011;28283;55.426;37.756;2023-05-20T04:17:30;3.97;;;0.65;;
42670;SDS011;28283;55.426;37.756;2023-05-20T04:22:30;1.00;;;0.40;;
42670;SDS011;28283;55.426;37.756;2023-05-20T04:27:31;0.63;;;0.40;;
42670;SDS011;28283;55.426;37.756;2023-05-20T04:32:34;8.38;;;0.70;;
42670;SDS011;28283;55.426;37.756;2023-05-20T04:37:35;0.50;;;0.40;;
42670;SDS011;28283;55.426;37.756;2023-05-20T04:42:37;1.75;;;0.52;;
42670;SDS011;28283;55.426;37.756;2023-05-20T04:47:38;2.30;;;0.50;;
42670;SDS011;28283;55.426;37.756;2023-05-20T04:57:40;1.38;;;0.68;;
42670;SDS011;28283;55.426;37.756;2023-05-20T05:02:42;2.05;;;0.50;;
42670;SDS011;28283;55.426;37.756;2023-05-20T05:07:43;2.20;;;0.40;;
42670;SDS011;28283;55.426;37.756;2023-05-20T05:12:43;1.70;;;0.50;;
42670;SDS011;28283;55.426;37.756;2023-05-20T05:17:44;3.97;;;0.70;;
42670;SDS011;28283;55.426;37.756;2023-05-20T05:22:45;2.72;;;0.40;;
42670;SDS011;28283;55.426;37.756;2023-05-20T05:27:46;3.00;;;0.60;;
42670;SDS011;28283;55.426;37.756;2023-05-20T05:32:49;1.35;;;0.30;;
42670;SDS011;28283;55.426;37.756;2023-05-20T05:37:50;2.63;;;0.63;;
42670;SDS011;28283;55.426;37.756;2023-05-20T05:42:51;0.38;;;0.30;;
42670;SDS011;28283;55.426;37.756;2023-05-20T05:47:51;0.93;;;0.53;;
42670;SDS011;28283;55.426;37.756;2023-05-20T05:52:53;4.30;;;0.93;;
42670;SDS011;28283;55.426;37.756;2023-05-20T05:57:54;1.50;;;0.52;;
42670;SDS011;28283;55.426;37.756;2023-05-20T06:02:55;1.75;;;0.50;;
42670;SDS011;28283;55.426;37.756;2023-05-20T06:07:56;0.77;;;0.60;;
42670;SDS011;28283;55.426;37.756;2023-05-20T06:12:57;3.13;;;0.80;;
42670;SDS011;28283;55.426;37.756;2023-05-20T06:17:57;2.25;;;0.70;;
42670;SDS011;28283;55.426;37.756;2023-05-20T06:22:58;3.07;;;0.77;;
42670;SDS011;28283;55.426;37.756;2023-05-20T06:27:58;3.92;;;1.27;;
42670;SDS011;28283;55.426;37.756;2023-05-20T06:32:59;3.90;;;0.60;;
42670;SDS011;28283;55.426;37.756;2023-05-20T06:38:00;1.40;;;0.40;;
42670;SDS011;28283;55.426;37.756;2023-05-20T06:48:02;3.47;;;0.50;;
42670;SDS011;28283;55.426;37.756;2023-05-20T06:53:02;0.75;;;0.40;;
42670;SDS011;28283;55.426;37.756;2023-05-20T06:58:03;2.38;;;0.77;;
42670;SDS011;28283;55.426;37.756;2023-05-20T07:03:04;6.97;;;1.13;;
42670;SDS011;28283;55.426;37.756;2023-05-20T07:08:04;10.98;;;0.90;;
42670;SDS011;28283;55.426;37.756;2023-05-20T07:13:05;1.02;;;0.47;;
42670;SDS011;28283;55.426;37.756;2023-05-20T07:18:06;2.97;;;0.70;;
42670;SDS011;28283;55.426;37.756;2023-05-20T07:23:06;8.95;;;1.02;;
42670;SDS011;28283;55.426;37.756;2023-05-20T07:28:07;7.43;;;0.70;;
42670;SDS011;28283;55.426;37.756;2023-05-20T07:33:07;5.47;;;1.37;;
42670;SDS011;28283;55.426;37.756;2023-05-20T07:38:09;1.40;;;0.60;;
42670;SDS011;28283;55.426;37.756;2023-05-20T07:43:11;3.85;;;0.60;;
42670;SDS011;28283;55.426;37.756;2023-05-20T07:48:12;1.70;;;0.47;;
42670;SDS011;28283;55.426;37.756;2023-05-20T07:53:12;3.15;;;0.93;;
42670;SDS011;28283;55.426;37.756;2023-05-20T07:58:13;4.50;;;0.98;;
42670;SDS011;28283;55.426;37.756;2023-05-20T08:03:13;3.53;;;1.03;;
42670;SDS011;28283;55.426;37.756;2023-05-20T08:08:14;0.40;;;0.40;;
42670;SDS011;28283;55.426;37.756;2023-05-20T08:13:16;1.42;;;1.05;;
42670;SDS011;28283;55.426;37.756;2023-05-20T08:18:16;3.13;;;0.63;;
42670;SDS011;28283;55.426;37.756;2023-05-20T08:23:17;8.20;;;0.80;;
42670;SDS011;28283;55.426;37.756;2023-05-20T08:28:18;3.60;;;0.80;;
42670;SDS011;28283;55.426;37.756;2023-05-20T08:33:18;3.10;;;0.55;;
42670;SDS011;28283;55.426;37.756;2023-05-20T08:38:20;5.35;;;0.95;;
42670;SDS011;28283;55.426;37.756;2023-05-20T08:43:22;2.28;;;0.60;;
42670;SDS011;28283;55.426;37.756;2023-05-20T08:48:24;1.30;;;0.60;;
42670;SDS011;28283;55.426;37.756;2023-05-20T08:53:27;1.30;;;0.68;;
42670;SDS011;28283;55.426;37.756;2023-05-20T08:58:28;5.80;;;1.20;;
42670;SDS011;28283;55.426;37.756;2023-05-20T09:03:31;1.33;;;0.50;;
42670;SDS011;28283;55.426;37.756;2023-05-20T09:08:32;4.80;;;0.80;;
42670;SDS011;28283;55.426;37.756;2023-05-20T09:18:36;4.35;;;1.00;;
42670;SDS011;28283;55.426;37.756;2023-05-20T09:23:38;2.85;;;0.80;;
42670;SDS011;28283;55.426;37.756;2023-05-20T09:28:38;6.80;;;1.08;;
42670;SDS011;28283;55.426;37.756;2023-05-20T09:33:40;6.13;;;0.85;;
42670;SDS011;28283;55.426;37.756;2023-05-20T09:38:40;5.82;;;0.63;;
42670;SDS011;28283;55.426;37.756;2023-05-20T09:43:43;5.22;;;0.90;;
42670;SDS011;28283;55.426;37.756;2023-05-20T09:48:44;7.80;;;0.73;;
42670;SDS011;28283;55.426;37.756;2023-05-20T09:54:16;11.10;;;1.20;;
42670;SDS011;28283;55.426;37.756;2023-05-20T09:59:18;4.57;;;0.80;;
42670;SDS011;28283;55.426;37.756;2023-05-20T10:04:21;8.73;;;0.95;;
42670;SDS011;28283;55.426;37.756;2023-05-20T10:09:34;1.65;;;0.57;;
42670;SDS011;28283;55.426;37.756;2023-05-20T10:19:57;7.70;;;1.15;;
42670;SDS011;28283;55.426;37.756;2023-05-20T10:25:00;5.47;;;1.30;;
42670;SDS011;28283;55.426;37.756;2023-05-20T10:30:14;4.97;;;1.17;;
42670;SDS011;28283;55.426;37.756;2023-05-20T10:35:22;2.70;;;0.90;;
42670;SDS011;28283;55.426;37.756;2023-05-20T10:40:26;7.13;;;1.35;;
42670;SDS011;28283;55.426;37.756;2023-05-20T10:45:27;1.95;;;0.90;;
42670;SDS011;28283;55.426;37.756;2023-05-20T10:50:33;6.90;;;2.15;;
42670;SDS011;28283;55.426;37.756;2023-05-20T10:55:36;3.65;;;1.10;;
42670;SDS011;28283;55.426;37.756;2023-05-20T11:00:37;2.45;;;0.77;;
42670;SDS011;28283;55.426;37.756;2023-05-20T11:05:40;2.38;;;0.77;;
42670;SDS011;28283;55.426;37.756;2023-05-20T11:10:41;8.73;;;0.88;;
42670;SDS011;28283;55.426;37.756;2023-05-20T11:15:44;5.55;;;1.08;;
42670;SDS011;28283;55.426;37.756;2023-05-20T11:20:45;3.30;;;0.88;;
42670;SDS011;28283;55.426;37.756;2023-05-20T11:25:46;2.08;;;1.00;;
42670;SDS011;28283;55.426;37.756;2023-05-20T11:30:47;5.93;;;1.40;;
42670;SDS011;28283;55.426;37.756;2023-05-20T11:35:48;1.27;;;0.82;;
42670;SDS011;28283;55.426;37.756;2023-05-20T11:40:51;3.35;;;0.70;;
42670;SDS011;28283;55.426;37.756;2023-05-20T11:45:54;2.72;;;1.05;;
42670;SDS011;28283;55.426;37.756;2023-05-20T11:50:58;3.38;;;0.90;;
42670;SDS011;28283;55.426;37.756;2023-05-20T11:55:59;2.78;;;1.20;;
42670;SDS011;28283;55.426;37.756;2023-05-20T12:01:01;4.15;;;0.93;;
42670;SDS011;28283;55.426;37.756;2023-05-20T12:06:02;8.10;;;1.45;;
42670;SDS011;28283;55.426;37.756;2023-05-20T12:11:03;6.83;;;0.90;;
42670;SDS011;28283;55.426;37.756;2023-05-20T12:16:03;5.93;;;1.20;;
42670;SDS011;28283;55.426;37.756;2023-05-20T12:21:07;0.75;;;0.73;;
42670;SDS011;28283;55.426;37.756;2023-05-20T12:26:08;4.80;;;2.40;;
42670;SDS011;28283;55.426;37.756;2023-05-20T12:31:09;3.10;;;1.25;;
42670;SDS011;28283;55.426;37.756;2023-05-20T12:36:10;5.28;;;1.13;;
42670;SDS011;28283;55.426;37.756;2023-05-20T12:41:12;5.30;;;1.33;;
42670;SDS011;28283;55.426;37.756;2023-05-20T12:46:13;5.95;;;1.60;;
42670;SDS011;28283;55.426;37.756;2023-05-20T12:51:14;8.18;;;1.35;;
42670;SDS011;28283;55.426;37.756;2023-05-20T12:56:14;2.72;;;1.60;;
42670;SDS011;28283;55.426;37.756;2023-05-20T13:01:15;2.40;;;1.08;;
42670;SDS011;28283;55.426;37.756;2023-05-20T13:06:16;3.60;;;1.10;;
42670;SDS011;28283;55.426;37.756;2023-05-20T13:11:16;6.27;;;1.57;;
42670;SDS011;28283;55.426;37.756;2023-05-20T13:16:17;3.47;;;2.17;;
42670;SDS011;28283;55.426;37.756;2023-05-20T13:21:18;5.38;;;2.08;;
42670;SDS011;28283;55.426;37.756;2023-05-20T13:26:19;5.25;;;1.35;;
42670;SDS011;28283;55.426;37.756;2023-05-20T13:31:21;3.10;;;0.95;;
42670;SDS011;28283;55.426;37.756;2023-05-20T13:36:21;1.95;;;0.93;;
42670;SDS011;28283;55.426;37.756;2023-05-20T13:41:25;4.75;;;1.65;;
42670;SDS011;28283;55.426;37.756;2023-05-20T13:46:25;1.60;;;1.17;;
42670;SDS011;28283;55.426;37.756;2023-05-20T13:51:26;6.05;;;1.52;;
42670;SDS011;28283;55.426;37.756;2023-05-20T14:02:06;2.42;;;1.48;;
42670;SDS011;28283;55.426;37.756;2023-05-20T14:07:14;3.80;;;1.40;;
42670;SDS011;28283;55.426;37.756;2023-05-20T14:12:18;3.25;;;1.58;;
42670;SDS011;28283;55.426;37.756;2023-05-20T14:17:20;4.97;;;2.25;;
42670;SDS011;28283;55.426;37.756;2023-05-20T14:22:21;7.30;;;2.20;;
42670;SDS011;28283;55.426;37.756;2023-05-20T14:27:21;8.02;;;1.40;;
42670;SDS011;28283;55.426;37.756;2023-05-20T14:32:22;6.30;;;1.70;;
42670;SDS011;28283;55.426;37.756;2023-05-20T14:37:23;5.18;;;1.40;;
42670;SDS011;28283;55.426;37.756;2023-05-20T14:42:23;5.28;;;1.75;;
42670;SDS011;28283;55.426;37.756;2023-05-20T14:47:24;9.00;;;2.67;;
42670;SDS011;28283;55.426;37.756;2023-05-20T14:57:26;9.82;;;2.28;;
42670;SDS011;28283;55.426;37.756;2023-05-20T15:02:26;12.38;;;1.75;;
42670;SDS011;28283;55.426;37.756;2023-05-20T15:07:27;4.45;;;2.47;;
42670;SDS011;28283;55.426;37.756;2023-05-20T15:12:28;16.13;;;2.83;;
42670;SDS011;28283;55.426;37.756;2023-05-20T15:17:30;8.90;;;2.90;;
42670;SDS011;28283;55.426;37.756;2023-05-20T15:22:31;3.72;;;2.22;;
42670;SDS011;28283;55.426;37.756;2023-05-20T15:27:32;8.05;;;5.47;;
42670;SDS011;28283;55.426;37.756;2023-05-20T15:32:32;17.17;;;9.60;;
42670;SDS011;28283;55.426;37.756;2023-05-20T15:37:33;11.60;;;7.03;;
42670;SDS011;28283;55.426;37.756;2023-05-20T15:42:34;10.95;;;4.00;;
42670;SDS011;28283;55.426;37.756;2023-05-20T15:47:34;11.40;;;3.20;;
42670;SDS011;28283;55.426;37.756;2023-05-20T15:52:36;7.18;;;2.03;;
42670;SDS011;28283;55.426;37.756;2023-05-20T15:57:37;6.05;;;2.38;;
42670;SDS011;28283;55.426;37.756;2023-05-20T16:02:38;3.63;;;2.00;;
42670;SDS011;28283;55.426;37.756;2023-05-20T16:07:40;6.22;;;4.20;;
42670;SDS011;28283;55.426;37.756;2023-05-20T16:12:41;3.08;;;1.65;;
42670;SDS011;28283;55.426;37.756;2023-05-20T16:17:42;8.23;;;3.05;;
42670;SDS011;28283;55.426;37.756;2023-05-20T16:22:43;6.65;;;2.70;;
42670;SDS011;28283;55.426;37.756;2023-05-20T16:27:44;9.02;;;2.58;;
42670;SDS011;28283;55.426;37.756;2023-05-20T16:32:44;5.28;;;2.20;;
42670;SDS011;28283;55.426;37.756;2023-05-20T16:37:45;13.52;;;4.40;;
42670;SDS011;28283;55.426;37.756;2023-05-20T16:42:46;10.32;;;4.28;;
42670;SDS011;28283;55.426;37.756;2023-05-20T16:47:46;8.93;;;3.87;;
42670;SDS011;28283;55.426;37.756;2023-05-20T16:52:47;7.67;;;4.03;;
42670;SDS011;28283;55.426;37.756;2023-05-20T16:57:47;5.80;;;2.80;;
42670;SDS011;28283;55.426;37.756;2023-05-20T17:02:49;3.92;;;2.00;;
42670;SDS011;28283;55.426;37.756;2023-05-20T17:07:50;3.90;;;2.60;;
42670;SDS011;28283;55.426;37.756;2023-05-20T17:12:50;1.90;;;1.70;;
42670;SDS011;28283;55.426;37.756;2023-05-20T17:17:51;3.95;;;2.83;;
42670;SDS011;28283;55.426;37.756;2023-05-20T17:22:52;3.50;;;2.03;;
42670;SDS011;28283;55.426;37.756;2023-05-20T17:27:53;1.73;;;1.63;;
42670;SDS011;28283;55.426;37.756;2023-05-20T17:32:53;2.38;;;1.63;;
42670;SDS011;28283;55.426;37.756;2023-05-20T17:37:56;3.95;;;2.92;;
42670;SDS011;28283;55.426;37.756;2023-05-20T17:42:57;4.75;;;2.30;;
42670;SDS011;28283;55.426;37.756;2023-05-20T17:47:57;5.72;;;2.83;;
42670;SDS011;28283;55.426;37.756;2023-05-20T17:52:58;7.07;;;2.53;;
42670;SDS011;28283;55.426;37.756;2023-05-20T17:57:58;10.63;;;2.55;;
42670;SDS011;28283;55.426;37.756;2023-05-20T18:03:00;6.38;;;2.83;;
42670;SDS011;28283;55.426;37.756;2023-05-20T18:08:01;8.57;;;2.83;;
42670;SDS011;28283;55.426;37.756;2023-05-20T18:13:02;2.95;;;1.63;;
42670;SDS011;28283;55.426;37.756;2023-05-20T18:18:04;2.03;;;1.23;;
42670;SDS011;28283;55.426;37.756;2023-05-20T18:23:04;5.63;;;1.60;;
42670;SDS011;28283;55.426;37.756;2023-05-20T18:28:05;4.38;;;1.38;;
42670;SDS011;28283;55.426;37.756;2023-05-20T18:33:07;8.45;;;2.10;;
42670;SDS011;28283;55.426;37.756;2023-05-20T18:38:08;1.60;;;1.50;;
42670;SDS011;28283;55.426;37.756;2023-05-20T18:43:09;4.90;;;1.30;;
42670;SDS011;28283;55.426;37.756;2023-05-20T18:48:10;3.10;;;1.60;;
42670;SDS011;28283;55.426;37.756;2023-05-20T18:53:10;5.10;;;2.28;;
42670;SDS011;28283;55.426;37.756;2023-05-20T18:58:11;4.07;;;2.33;;
42670;SDS011;28283;55.426;37.756;2023-05-20T19:03:12;2.83;;;1.73;;
42670;SDS011;28283;55.426;37.756;2023-05-20T19:08:13;5.33;;;2.47;;
42670;SDS011;28283;55.426;37.756;2023-05-20T19:13:13;3.70;;;2.35;;
42670;SDS011;28283;55.426;37.756;2023-05-20T19:18:14;7.68;;;2.65;;
42670;SDS011;28283;55.426;37.756;2023-05-20T19:23:15;4.72;;;2.17;;
42670;SDS011;28283;55.426;37.756;2023-05-20T19:28:16;5.78;;;2.65;;
42670;SDS011;28283;55.426;37.756;2023-05-20T19:33:17;4.85;;;2.70;;
42670;SDS011;28283;55.426;37.756;2023-05-20T19:38:17;6.65;;;3.67;;
42670;SDS011;28283;55.426;37.756;2023-05-20T19:43:18;10.50;;;3.00;;
42670;SDS011;28283;55.426;37.756;2023-05-20T19:48:19;8.00;;;2.90;;
42670;SDS011;28283;55.426;37.756;2023-05-20T19:53:19;5.50;;;2.90;;
42670;SDS011;28283;55.426;37.756;2023-05-20T19:58:20;4.97;;;3.30;;
42670;SDS011;28283;55.426;37.756;2023-05-20T20:08:21;3.00;;;2.67;;
42670;SDS011;28283;55.426;37.756;2023-05-20T20:13:22;5.80;;;3.53;;
42670;SDS011;28283;55.426;37.756;2023-05-20T20:18:23;7.43;;;3.47;;
42670;SDS011;28283;55.426;37.756;2023-05-20T20:23:27;6.32;;;4.10;;
42670;SDS011;28283;55.426;37.756;2023-05-20T20:28:27;5.63;;;3.00;;
42670;SDS011;28283;55.426;37.756;2023-05-20T20:33:28;4.82;;;3.05;;
42670;SDS011;28283;55.426;37.756;2023-05-20T20:38:29;5.82;;;3.85;;
42670;SDS011;28283;55.426;37.756;2023-05-20T20:43:30;4.53;;;4.13;;
42670;SDS011;28283;55.426;37.756;2023-05-20T20:48:33;6.93;;;4.10;;
42670;SDS011;28283;55.426;37.756;2023-05-20T20:53:34;8.33;;;3.60;;
42670;SDS011;28283;55.426;37.756;2023-05-20T20:58:36;4.72;;;3.17;;
42670;SDS011;28283;55.426;37.756;2023-05-20T21:03:37;4.20;;;3.80;;
42670;SDS011;28283;55.426;37.756;2023-05-20T21:08:39;6.95;;;3.90;;
42670;SDS011;28283;55.426;37.756;2023-05-20T21:13:41;7.95;;;4.43;;
42670;SDS011;28283;55.426;37.756;2023-05-20T21:23:43;5.57;;;4.82;;
42670;SDS011;28283;55.426;37.756;2023-05-20T21:28:44;4.80;;;4.40;;
42670;SDS011;28283;55.426;37.756;2023-05-20T21:33:44;5.63;;;4.30;;
42670;SDS011;28283;55.426;37.756;2023-05-20T21:38:45;7.50;;;3.97;;
42670;SDS011;28283;55.426;37.756;2023-05-20T21:43:46;6.10;;;4.20;;
42670;SDS011;28283;55.426;37.756;2023-05-20T21:48:46;4.32;;;3.92;;
42670;SDS011;28283;55.426;37.756;2023-05-20T21:53:47;4.07;;;3.30;;
42670;SDS011;28283;55.426;37.756;2023-05-20T21:58:47;7.20;;;3.90;;
42670;SDS011;28283;55.426;37.756;2023-05-20T22:03:48;5.30;;;4.53;;
42670;SDS011;28283;55.426;37.756;2023-05-20T22:08:49;5.82;;;5.28;;
42670;SDS011;28283;55.426;37.756;2023-05-20T22:18:52;6.70;;;5.45;;
42670;SDS011;28283;55.426;37.756;2023-05-20T22:23:53;5.95;;;5.13;;
42670;SDS011;28283;55.426;37.756;2023-05-20T22:28:54;7.30;;;4.88;;
42670;SDS011;28283;55.426;37.756;2023-05-20T22:33:54;6.93;;;5.47;;
42670;SDS011;28283;55.426;37.756;2023-05-20T22:38:55;7.50;;;4.90;;
42670;SDS011;28283;55.426;37.756;2023-05-20T22:43:56;14.80;;;4.72;;
42670;SDS011;28283;55.426;37.756;2023-05-20T22:48:57;8.80;;;5.00;;
42670;SDS011;28283;55.426;37.756;2023-05-20T22:53:58;7.10;;;5.30;;
42670;SDS011;28283;55.426;37.756;2023-05-20T22:58:59;6.30;;;5.70;;
42670;SDS011;28283;55.426;37.756;2023-05-20T23:04:00;6.05;;;5.45;;
42670;SDS011;28283;55.426;37.756;2023-05-20T23:09:00;5.70;;;5.00;;
42670;SDS011;28283;55.426;37.756;2023-05-20T23:14:01;6.53;;;4.73;;
42670;SDS011;28283;55.426;37.756;2023-05-20T23:19:01;6.55;;;5.10;;
42670;SDS011;28283;55.426;37.756;2023-05-20T23:24:02;7.15;;;5.47;;
42670;SDS011;28283;55.426;37.756;2023-05-20T23:29:03;9.50;;;5.93;;
42670;SDS011;28283;55.426;37.756;2023-05-20T23:34:04;7.13;;;6.32;;
42670;SDS011;28283;55.426;37.756;2023-05-20T23:39:05;6.55;;;6.00;;
42670;SDS011;28283;55.426;37.756;2023-05-20T23:44:06;9.38;;;6.55;;
42670;SDS011;28283;55.426;37.756;2023-05-20T23:49:06;6.07;;;5.57;;
42670;SDS011;28283;55.426;37.756;2023-05-20T23:54:09;6.90;;;5.95;;
42670;SDS011;28283;55.426;37.756;2023-05-20T23:59:13;6.72;;;6.07;;
